sensor_id;sensor_type;location;lat;lon;timestamp;P1;durP1;ratioP1;P2;durP2;ratioP2
8480;SDS011;4277;51.354;6.740;2022-08-24T00:02:15;5.90;;;2.72;;
8480;SDS011;4277;51.354;6.740;2022-08-24T00:07:13;3.83;;;2.60;;
8480;SDS011;4277;51.354;6.740;2022-08-24T00:09:40;3.80;;;2.45;;
8480;SDS011;4277;51.354;6.740;2022-08-24T00:12:06;4.00;;;2.35;;
8480;SDS011;4277;51.354;6.740;2022-08-24T00:14:32;4.57;;;2.40;;
8480;SDS011;4277;51.354;6.740;2022-08-24T00:16:59;2.40;;;2.20;;
8480;SDS011;4277;51.354;6.740;2022-08-24T00:19:25;3.47;;;2.38;;
8480;SDS011;4277;51.354;6.740;2022-08-24T00:21:52;3.17;;;2.30;;
8480;SDS011;4277;51.354;6.740;2022-08-24T00:24:18;2.92;;;2.47;;
8480;SDS011;4277;51.354;6.740;2022-08-24T00:26:44;5.35;;;2.60;;
8480;SDS011;4277;51.354;6.740;2022-08-24T00:29:11;3.15;;;2.60;;
8480;SDS011;4277;51.354;6.740;2022-08-24T00:31:37;5.95;;;2.60;;
8480;SDS011;4277;51.354;6.740;2022-08-24T00:34:03;5.40;;;2.78;;
8480;SDS011;4277;51.354;6.740;2022-08-24T00:36:29;5.85;;;2.83;;
8480;SDS011;4277;51.354;6.740;2022-08-24T00:38:55;5.90;;;2.70;;
8480;SDS011;4277;51.354;6.740;2022-08-24T00:41:21;4.43;;;2.50;;
8480;SDS011;4277;51.354;6.740;2022-08-24T00:43:55;3.75;;;2.80;;
8480;SDS011;4277;51.354;6.740;2022-08-24T00:46:24;5.57;;;2.45;;
8480;SDS011;4277;51.354;6.740;2022-08-24T00:48:54;8.52;;;2.63;;
8480;SDS011;4277;51.354;6.740;2022-08-24T00:51:24;5.03;;;2.58;;
8480;SDS011;4277;51.354;6.740;2022-08-24T00:53:52;4.03;;;2.80;;
8480;SDS011;4277;51.354;6.740;2022-08-24T00:56:23;3.97;;;2.40;;
8480;SDS011;4277;51.354;6.740;2022-08-24T00:59:00;4.53;;;2.78;;
8480;SDS011;4277;51.354;6.740;2022-08-24T01:01:26;7.70;;;2.97;;
8480;SDS011;4277;51.354;6.740;2022-08-24T01:03:53;3.92;;;2.25;;
8480;SDS011;4277;51.354;6.740;2022-08-24T01:06:19;3.72;;;2.60;;
8480;SDS011;4277;51.354;6.740;2022-08-24T01:08:45;4.75;;;2.83;;
8480;SDS011;4277;51.354;6.740;2022-08-24T01:11:13;4.45;;;2.83;;
8480;SDS011;4277;51.354;6.740;2022-08-24T01:13:41;4.75;;;2.88;;
8480;SDS011;4277;51.354;6.740;2022-08-24T01:16:08;5.65;;;2.70;;
8480;SDS011;4277;51.354;6.740;2022-08-24T01:18:35;4.43;;;2.80;;
8480;SDS011;4277;51.354;6.740;2022-08-24T01:23:41;3.70;;;2.65;;
8480;SDS011;4277;51.354;6.740;2022-08-24T01:26:09;6.00;;;2.55;;
8480;SDS011;4277;51.354;6.740;2022-08-24T01:28:36;3.20;;;2.72;;
8480;SDS011;4277;51.354;6.740;2022-08-24T01:31:04;3.03;;;2.50;;
8480;SDS011;4277;51.354;6.740;2022-08-24T01:33:30;4.18;;;2.92;;
8480;SDS011;4277;51.354;6.740;2022-08-24T01:35:57;5.03;;;3.00;;
8480;SDS011;4277;51.354;6.740;2022-08-24T01:38:24;5.25;;;2.42;;
8480;SDS011;4277;51.354;6.740;2022-08-24T01:40:52;5.47;;;2.95;;
8480;SDS011;4277;51.354;6.740;2022-08-24T01:43:19;5.63;;;2.85;;
8480;SDS011;4277;51.354;6.740;2022-08-24T01:45:46;2.95;;;2.58;;
8480;SDS011;4277;51.354;6.740;2022-08-24T01:48:12;3.20;;;2.58;;
8480;SDS011;4277;51.354;6.740;2022-08-24T01:50:39;3.25;;;2.58;;
8480;SDS011;4277;51.354;6.740;2022-08-24T01:53:05;3.17;;;2.38;;
8480;SDS011;4277;51.354;6.740;2022-08-24T01:55:32;7.03;;;2.80;;
8480;SDS011;4277;51.354;6.740;2022-08-24T01:57:58;3.50;;;2.60;;
8480;SDS011;4277;51.354;6.740;2022-08-24T02:00:24;3.88;;;2.60;;
8480;SDS011;4277;51.354;6.740;2022-08-24T02:02:51;3.42;;;2.70;;
8480;SDS011;4277;51.354;6.740;2022-08-24T02:05:17;4.00;;;2.58;;
8480;SDS011;4277;51.354;6.740;2022-08-24T02:07:43;4.00;;;2.55;;
8480;SDS011;4277;51.354;6.740;2022-08-24T02:10:10;6.43;;;3.00;;
8480;SDS011;4277;51.354;6.740;2022-08-24T02:12:36;3.15;;;2.70;;
8480;SDS011;4277;51.354;6.740;2022-08-24T02:15:04;4.30;;;2.80;;
8480;SDS011;4277;51.354;6.740;2022-08-24T02:17:31;3.78;;;2.40;;
8480;SDS011;4277;51.354;6.740;2022-08-24T02:19:58;6.65;;;2.95;;
8480;SDS011;4277;51.354;6.740;2022-08-24T02:22:24;3.65;;;2.58;;
8480;SDS011;4277;51.354;6.740;2022-08-24T02:24:51;3.38;;;2.72;;
8480;SDS011;4277;51.354;6.740;2022-08-24T02:27:17;3.88;;;2.78;;
8480;SDS011;4277;51.354;6.740;2022-08-24T02:29:43;4.65;;;2.67;;
8480;SDS011;4277;51.354;6.740;2022-08-24T02:32:11;5.00;;;2.85;;
8480;SDS011;4277;51.354;6.740;2022-08-24T02:34:37;4.40;;;2.90;;
8480;SDS011;4277;51.354;6.740;2022-08-24T02:37:03;5.97;;;2.75;;
8480;SDS011;4277;51.354;6.740;2022-08-24T02:39:29;5.18;;;2.80;;
8480;SDS011;4277;51.354;6.740;2022-08-24T02:41:55;5.40;;;2.70;;
8480;SDS011;4277;51.354;6.740;2022-08-24T02:44:21;5.93;;;2.97;;
8480;SDS011;4277;51.354;6.740;2022-08-24T02:46:47;6.35;;;3.05;;
8480;SDS011;4277;51.354;6.740;2022-08-24T02:49:13;4.70;;;2.85;;
8480;SDS011;4277;51.354;6.740;2022-08-24T02:51:40;4.78;;;2.75;;
8480;SDS011;4277;51.354;6.740;2022-08-24T02:54:07;5.10;;;2.90;;
8480;SDS011;4277;51.354;6.740;2022-08-24T02:56:34;5.15;;;3.00;;
8480;SDS011;4277;51.354;6.740;2022-08-24T02:59:00;3.67;;;3.08;;
8480;SDS011;4277;51.354;6.740;2022-08-24T03:01:27;3.55;;;2.60;;
8480;SDS011;4277;51.354;6.740;2022-08-24T03:03:53;3.05;;;2.72;;
8480;SDS011;4277;51.354;6.740;2022-08-24T03:06:19;4.32;;;3.40;;
8480;SDS011;4277;51.354;6.740;2022-08-24T03:08:46;7.20;;;3.10;;
8480;SDS011;4277;51.354;6.740;2022-08-24T03:11:12;3.80;;;2.80;;
8480;SDS011;4277;51.354;6.740;2022-08-24T03:13:38;4.40;;;3.00;;
8480;SDS011;4277;51.354;6.740;2022-08-24T03:16:04;3.47;;;3.05;;
8480;SDS011;4277;51.354;6.740;2022-08-24T03:18:31;4.30;;;3.20;;
8480;SDS011;4277;51.354;6.740;2022-08-24T03:20:58;5.53;;;2.85;;
8480;SDS011;4277;51.354;6.740;2022-08-24T03:23:24;4.22;;;2.92;;
8480;SDS011;4277;51.354;6.740;2022-08-24T03:25:52;3.22;;;2.63;;
8480;SDS011;4277;51.354;6.740;2022-08-24T03:28:18;6.07;;;2.70;;
8480;SDS011;4277;51.354;6.740;2022-08-24T03:30:44;6.72;;;2.95;;
8480;SDS011;4277;51.354;6.740;2022-08-24T03:33:10;4.88;;;2.90;;
8480;SDS011;4277;51.354;6.740;2022-08-24T03:35:36;5.63;;;3.00;;
8480;SDS011;4277;51.354;6.740;2022-08-24T03:38:03;6.25;;;2.95;;
8480;SDS011;4277;51.354;6.740;2022-08-24T03:40:29;3.60;;;2.70;;
8480;SDS011;4277;51.354;6.740;2022-08-24T03:42:57;3.35;;;2.70;;
8480;SDS011;4277;51.354;6.740;2022-08-24T03:45:23;4.43;;;2.92;;
8480;SDS011;4277;51.354;6.740;2022-08-24T03:47:50;5.25;;;2.80;;
8480;SDS011;4277;51.354;6.740;2022-08-24T03:50:16;4.75;;;3.00;;
8480;SDS011;4277;51.354;6.740;2022-08-24T03:52:42;4.72;;;2.80;;
8480;SDS011;4277;51.354;6.740;2022-08-24T03:55:08;3.67;;;2.70;;
8480;SDS011;4277;51.354;6.740;2022-08-24T03:57:34;4.28;;;2.97;;
8480;SDS011;4277;51.354;6.740;2022-08-24T04:00:01;4.00;;;2.95;;
8480;SDS011;4277;51.354;6.740;2022-08-24T04:02:27;3.95;;;3.17;;
8480;SDS011;4277;51.354;6.740;2022-08-24T04:04:53;3.85;;;3.10;;
8480;SDS011;4277;51.354;6.740;2022-08-24T04:07:19;4.50;;;3.22;;
8480;SDS011;4277;51.354;6.740;2022-08-24T04:09:45;5.57;;;3.05;;
8480;SDS011;4277;51.354;6.740;2022-08-24T04:12:11;5.55;;;3.05;;
8480;SDS011;4277;51.354;6.740;2022-08-24T04:14:37;6.93;;;3.15;;
8480;SDS011;4277;51.354;6.740;2022-08-24T04:17:04;5.18;;;3.17;;
8480;SDS011;4277;51.354;6.740;2022-08-24T04:19:30;7.03;;;3.30;;
8480;SDS011;4277;51.354;6.740;2022-08-24T04:21:56;4.50;;;2.90;;
8480;SDS011;4277;51.354;6.740;2022-08-24T04:24:23;5.22;;;3.35;;
8480;SDS011;4277;51.354;6.740;2022-08-24T04:26:49;5.78;;;3.10;;
8480;SDS011;4277;51.354;6.740;2022-08-24T04:29:16;7.85;;;3.33;;
8480;SDS011;4277;51.354;6.740;2022-08-24T04:31:43;5.82;;;3.20;;
8480;SDS011;4277;51.354;6.740;2022-08-24T04:34:10;5.88;;;3.03;;
8480;SDS011;4277;51.354;6.740;2022-08-24T04:36:38;4.93;;;2.85;;
8480;SDS011;4277;51.354;6.740;2022-08-24T04:39:04;5.93;;;3.30;;
8480;SDS011;4277;51.354;6.740;2022-08-24T04:41:30;4.63;;;3.00;;
8480;SDS011;4277;51.354;6.740;2022-08-24T04:43:56;4.28;;;2.97;;
8480;SDS011;4277;51.354;6.740;2022-08-24T04:46:23;6.88;;;3.30;;
8480;SDS011;4277;51.354;6.740;2022-08-24T04:48:49;5.60;;;3.35;;
8480;SDS011;4277;51.354;6.740;2022-08-24T04:51:16;8.85;;;3.40;;
8480;SDS011;4277;51.354;6.740;2022-08-24T04:53:43;3.95;;;3.10;;
8480;SDS011;4277;51.354;6.740;2022-08-24T04:56:11;5.85;;;3.28;;
8480;SDS011;4277;51.354;6.740;2022-08-24T04:58:37;5.68;;;3.15;;
8480;SDS011;4277;51.354;6.740;2022-08-24T05:01:23;5.53;;;3.00;;
8480;SDS011;4277;51.354;6.740;2022-08-24T05:03:50;5.05;;;3.38;;
8480;SDS011;4277;51.354;6.740;2022-08-24T05:06:18;5.18;;;3.30;;
8480;SDS011;4277;51.354;6.740;2022-08-24T05:08:44;6.25;;;3.15;;
8480;SDS011;4277;51.354;6.740;2022-08-24T05:11:11;3.67;;;3.03;;
8480;SDS011;4277;51.354;6.740;2022-08-24T05:13:38;4.95;;;3.30;;
8480;SDS011;4277;51.354;6.740;2022-08-24T05:16:05;7.78;;;3.47;;
8480;SDS011;4277;51.354;6.740;2022-08-24T05:18:31;4.10;;;2.95;;
8480;SDS011;4277;51.354;6.740;2022-08-24T05:20:57;4.28;;;2.95;;
8480;SDS011;4277;51.354;6.740;2022-08-24T05:23:24;5.75;;;3.08;;
8480;SDS011;4277;51.354;6.740;2022-08-24T05:25:50;5.10;;;3.05;;
8480;SDS011;4277;51.354;6.740;2022-08-24T05:28:16;5.50;;;3.20;;
8480;SDS011;4277;51.354;6.740;2022-08-24T05:30:42;7.93;;;3.22;;
8480;SDS011;4277;51.354;6.740;2022-08-24T05:33:09;9.65;;;3.40;;
8480;SDS011;4277;51.354;6.740;2022-08-24T05:35:36;4.72;;;3.50;;
8480;SDS011;4277;51.354;6.740;2022-08-24T05:38:02;5.75;;;3.50;;
8480;SDS011;4277;51.354;6.740;2022-08-24T05:40:28;7.65;;;3.60;;
8480;SDS011;4277;51.354;6.740;2022-08-24T05:42:54;5.90;;;3.40;;
8480;SDS011;4277;51.354;6.740;2022-08-24T05:45:20;8.15;;;3.47;;
8480;SDS011;4277;51.354;6.740;2022-08-24T05:47:46;7.05;;;3.13;;
8480;SDS011;4277;51.354;6.740;2022-08-24T05:50:12;7.47;;;3.00;;
8480;SDS011;4277;51.354;6.740;2022-08-24T05:52:38;6.85;;;3.00;;
8480;SDS011;4277;51.354;6.740;2022-08-24T05:55:05;7.15;;;3.40;;
8480;SDS011;4277;51.354;6.740;2022-08-24T05:57:32;5.82;;;3.33;;
8480;SDS011;4277;51.354;6.740;2022-08-24T05:59:58;4.25;;;3.40;;
8480;SDS011;4277;51.354;6.740;2022-08-24T06:02:24;5.15;;;3.10;;
8480;SDS011;4277;51.354;6.740;2022-08-24T06:04:50;5.43;;;2.97;;
8480;SDS011;4277;51.354;6.740;2022-08-24T06:07:16;6.50;;;3.65;;
8480;SDS011;4277;51.354;6.740;2022-08-24T06:09:42;6.10;;;3.50;;
8480;SDS011;4277;51.354;6.740;2022-08-24T06:12:09;9.77;;;3.80;;
8480;SDS011;4277;51.354;6.740;2022-08-24T06:14:38;12.90;;;3.83;;
8480;SDS011;4277;51.354;6.740;2022-08-24T06:17:04;5.60;;;3.50;;
8480;SDS011;4277;51.354;6.740;2022-08-24T06:19:31;5.32;;;3.60;;
8480;SDS011;4277;51.354;6.740;2022-08-24T06:21:57;10.95;;;4.20;;
8480;SDS011;4277;51.354;6.740;2022-08-24T06:24:24;7.22;;;4.80;;
8480;SDS011;4277;51.354;6.740;2022-08-24T06:27:13;8.60;;;4.35;;
8480;SDS011;4277;51.354;6.740;2022-08-24T06:29:53;6.00;;;3.63;;
8480;SDS011;4277;51.354;6.740;2022-08-24T06:32:19;7.32;;;3.78;;
8480;SDS011;4277;51.354;6.740;2022-08-24T06:34:45;7.28;;;3.97;;
8480;SDS011;4277;51.354;6.740;2022-08-24T06:37:12;8.32;;;4.70;;
8480;SDS011;4277;51.354;6.740;2022-08-24T06:39:38;8.70;;;4.28;;
8480;SDS011;4277;51.354;6.740;2022-08-24T06:42:04;10.60;;;4.70;;
8480;SDS011;4277;51.354;6.740;2022-08-24T06:44:30;10.10;;;4.80;;
8480;SDS011;4277;51.354;6.740;2022-08-24T06:46:56;10.18;;;4.88;;
8480;SDS011;4277;51.354;6.740;2022-08-24T06:49:23;8.32;;;4.30;;
8480;SDS011;4277;51.354;6.740;2022-08-24T06:51:49;14.05;;;5.20;;
8480;SDS011;4277;51.354;6.740;2022-08-24T06:54:15;10.35;;;5.57;;
8480;SDS011;4277;51.354;6.740;2022-08-24T06:56:41;10.77;;;5.28;;
8480;SDS011;4277;51.354;6.740;2022-08-24T06:59:07;7.18;;;4.35;;
8480;SDS011;4277;51.354;6.740;2022-08-24T07:01:33;7.68;;;4.10;;
8480;SDS011;4277;51.354;6.740;2022-08-24T07:03:59;12.52;;;3.90;;
8480;SDS011;4277;51.354;6.740;2022-08-24T07:06:25;5.53;;;3.70;;
8480;SDS011;4277;51.354;6.740;2022-08-24T07:08:52;5.22;;;3.60;;
8480;SDS011;4277;51.354;6.740;2022-08-24T07:11:20;5.95;;;3.30;;
8480;SDS011;4277;51.354;6.740;2022-08-24T07:13:47;6.15;;;3.50;;
8480;SDS011;4277;51.354;6.740;2022-08-24T07:16:13;7.88;;;3.28;;
8480;SDS011;4277;51.354;6.740;2022-08-24T07:18:40;6.70;;;3.28;;
8480;SDS011;4277;51.354;6.740;2022-08-24T07:21:06;6.90;;;3.20;;
8480;SDS011;4277;51.354;6.740;2022-08-24T07:23:32;7.53;;;3.45;;
8480;SDS011;4277;51.354;6.740;2022-08-24T07:26:03;9.00;;;3.40;;
8480;SDS011;4277;51.354;6.740;2022-08-24T07:28:33;5.85;;;3.20;;
8480;SDS011;4277;51.354;6.740;2022-08-24T07:31:00;10.45;;;3.10;;
8480;SDS011;4277;51.354;6.740;2022-08-24T07:33:27;4.95;;;3.20;;
8480;SDS011;4277;51.354;6.740;2022-08-24T07:35:53;5.22;;;2.80;;
8480;SDS011;4277;51.354;6.740;2022-08-24T07:38:18;5.95;;;3.40;;
8480;SDS011;4277;51.354;6.740;2022-08-24T07:40:45;4.68;;;3.30;;
8480;SDS011;4277;51.354;6.740;2022-08-24T07:43:11;3.70;;;2.78;;
8480;SDS011;4277;51.354;6.740;2022-08-24T07:45:38;4.38;;;2.97;;
8480;SDS011;4277;51.354;6.740;2022-08-24T07:48:06;7.53;;;3.13;;
8480;SDS011;4277;51.354;6.740;2022-08-24T07:50:32;5.50;;;2.97;;
8480;SDS011;4277;51.354;6.740;2022-08-24T07:52:58;5.05;;;2.83;;
8480;SDS011;4277;51.354;6.740;2022-08-24T07:55:24;5.10;;;3.20;;
8480;SDS011;4277;51.354;6.740;2022-08-24T07:57:50;3.88;;;3.10;;
8480;SDS011;4277;51.354;6.740;2022-08-24T08:00:16;5.07;;;3.10;;
8480;SDS011;4277;51.354;6.740;2022-08-24T08:02:43;4.95;;;3.20;;
8480;SDS011;4277;51.354;6.740;2022-08-24T08:05:10;6.63;;;2.83;;
8480;SDS011;4277;51.354;6.740;2022-08-24T08:07:37;8.05;;;3.00;;
8480;SDS011;4277;51.354;6.740;2022-08-24T08:10:03;5.20;;;2.92;;
8480;SDS011;4277;51.354;6.740;2022-08-24T08:12:29;5.47;;;2.85;;
8480;SDS011;4277;51.354;6.740;2022-08-24T08:14:55;5.43;;;3.05;;
8480;SDS011;4277;51.354;6.740;2022-08-24T08:17:21;10.02;;;3.13;;
8480;SDS011;4277;51.354;6.740;2022-08-24T08:19:47;5.60;;;3.10;;
8480;SDS011;4277;51.354;6.740;2022-08-24T08:22:12;5.32;;;2.95;;
8480;SDS011;4277;51.354;6.740;2022-08-24T08:24:56;5.32;;;2.75;;
8480;SDS011;4277;51.354;6.740;2022-08-24T08:27:22;5.40;;;2.72;;
8480;SDS011;4277;51.354;6.740;2022-08-24T08:29:49;5.18;;;2.65;;
8480;SDS011;4277;51.354;6.740;2022-08-24T08:32:15;7.38;;;2.80;;
8480;SDS011;4277;51.354;6.740;2022-08-24T08:34:41;3.60;;;2.55;;
8480;SDS011;4277;51.354;6.740;2022-08-24T08:37:08;4.00;;;2.70;;
8480;SDS011;4277;51.354;6.740;2022-08-24T08:39:35;8.05;;;2.97;;
8480;SDS011;4277;51.354;6.740;2022-08-24T08:42:10;5.50;;;2.78;;
8480;SDS011;4277;51.354;6.740;2022-08-24T08:50:36;4.75;;;2.85;;
8480;SDS011;4277;51.354;6.740;2022-08-24T08:55:47;3.97;;;2.90;;
8480;SDS011;4277;51.354;6.740;2022-08-24T09:01:23;6.60;;;2.70;;
8480;SDS011;4277;51.354;6.740;2022-08-24T09:04:34;7.40;;;2.65;;
8480;SDS011;4277;51.354;6.740;2022-08-24T09:17:10;7.65;;;2.78;;
8480;SDS011;4277;51.354;6.740;2022-08-24T09:22:53;6.22;;;2.67;;
8480;SDS011;4277;51.354;6.740;2022-08-24T09:25:44;6.60;;;2.67;;
8480;SDS011;4277;51.354;6.740;2022-08-24T09:33:19;6.45;;;2.30;;
8480;SDS011;4277;51.354;6.740;2022-08-24T09:44:01;6.30;;;2.47;;
8480;SDS011;4277;51.354;6.740;2022-08-24T09:52:14;4.70;;;3.08;;
8480;SDS011;4277;51.354;6.740;2022-08-24T09:58:05;10.00;;;7.50;;
8480;SDS011;4277;51.354;6.740;2022-08-24T10:00:33;10.05;;;6.10;;
8480;SDS011;4277;51.354;6.740;2022-08-24T10:03:27;6.00;;;2.45;;
8480;SDS011;4277;51.354;6.740;2022-08-24T10:06:15;6.20;;;3.63;;
8480;SDS011;4277;51.354;6.740;2022-08-24T10:12:03;5.28;;;2.80;;
8480;SDS011;4277;51.354;6.740;2022-08-24T10:42:13;5.22;;;3.05;;
8480;SDS011;4277;51.354;6.740;2022-08-24T10:48:41;5.28;;;2.10;;
8480;SDS011;4277;51.354;6.740;2022-08-24T10:53:53;7.65;;;2.90;;
8480;SDS011;4277;51.354;6.740;2022-08-24T10:56:26;7.68;;;2.22;;
8480;SDS011;4277;51.354;6.740;2022-08-24T10:59:15;5.95;;;2.60;;
8480;SDS011;4277;51.354;6.740;2022-08-24T11:01:58;5.60;;;2.53;;
8480;SDS011;4277;51.354;6.740;2022-08-24T11:04:27;2.58;;;2.10;;
8480;SDS011;4277;51.354;6.740;2022-08-24T11:07:08;3.35;;;1.90;;
8480;SDS011;4277;51.354;6.740;2022-08-24T11:15:00;4.38;;;2.50;;
8480;SDS011;4277;51.354;6.740;2022-08-24T11:17:29;6.18;;;2.10;;
8480;SDS011;4277;51.354;6.740;2022-08-24T11:19:57;4.18;;;2.30;;
8480;SDS011;4277;51.354;6.740;2022-08-24T11:22:37;7.60;;;2.30;;
8480;SDS011;4277;51.354;6.740;2022-08-24T11:25:24;3.38;;;1.98;;
8480;SDS011;4277;51.354;6.740;2022-08-24T11:27:56;3.10;;;1.75;;
8480;SDS011;4277;51.354;6.740;2022-08-24T11:30:28;4.57;;;2.15;;
8480;SDS011;4277;51.354;6.740;2022-08-24T11:32:55;5.93;;;2.03;;
8480;SDS011;4277;51.354;6.740;2022-08-24T11:38:19;3.15;;;2.03;;
8480;SDS011;4277;51.354;6.740;2022-08-24T11:40:53;5.28;;;2.17;;
8480;SDS011;4277;51.354;6.740;2022-08-24T11:45:58;3.17;;;2.33;;
8480;SDS011;4277;51.354;6.740;2022-08-24T11:50:57;3.08;;;2.08;;
8480;SDS011;4277;51.354;6.740;2022-08-24T11:56:26;3.95;;;2.00;;
8480;SDS011;4277;51.354;6.740;2022-08-24T12:01:54;2.28;;;1.88;;
8480;SDS011;4277;51.354;6.740;2022-08-24T12:06:56;2.30;;;1.73;;
8480;SDS011;4277;51.354;6.740;2022-08-24T12:12:24;4.55;;;2.00;;
8480;SDS011;4277;51.354;6.740;2022-08-24T12:14:56;2.80;;;2.10;;
8480;SDS011;4277;51.354;6.740;2022-08-24T12:17:32;2.20;;;1.83;;
8480;SDS011;4277;51.354;6.740;2022-08-24T12:20:00;2.40;;;1.90;;
8480;SDS011;4277;51.354;6.740;2022-08-24T12:22:43;6.13;;;2.03;;
8480;SDS011;4277;51.354;6.740;2022-08-24T12:25:09;5.78;;;2.20;;
8480;SDS011;4277;51.354;6.740;2022-08-24T12:27:56;4.55;;;2.00;;
8480;SDS011;4277;51.354;6.740;2022-08-24T12:30:22;3.50;;;1.80;;
8480;SDS011;4277;51.354;6.740;2022-08-24T12:32:52;5.55;;;1.90;;
8480;SDS011;4277;51.354;6.740;2022-08-24T12:35:33;4.53;;;2.10;;
8480;SDS011;4277;51.354;6.740;2022-08-24T12:38:01;5.38;;;1.85;;
8480;SDS011;4277;51.354;6.740;2022-08-24T12:40:39;4.72;;;2.08;;
8480;SDS011;4277;51.354;6.740;2022-08-24T12:43:36;3.55;;;2.00;;
8480;SDS011;4277;51.354;6.740;2022-08-24T12:46:06;3.78;;;1.60;;
8480;SDS011;4277;51.354;6.740;2022-08-24T12:51:25;3.05;;;1.70;;
8480;SDS011;4277;51.354;6.740;2022-08-24T12:59:21;5.03;;;1.83;;
8480;SDS011;4277;51.354;6.740;2022-08-24T13:28:35;3.25;;;1.70;;
8480;SDS011;4277;51.354;6.740;2022-08-24T13:33:59;2.95;;;1.77;;
8480;SDS011;4277;51.354;6.740;2022-08-24T13:40:05;2.55;;;1.80;;
8480;SDS011;4277;51.354;6.740;2022-08-24T13:45:33;3.13;;;1.90;;
8480;SDS011;4277;51.354;6.740;2022-08-24T13:55:55;2.15;;;1.58;;
8480;SDS011;4277;51.354;6.740;2022-08-24T13:58:41;3.55;;;1.60;;
8480;SDS011;4277;51.354;6.740;2022-08-24T14:03:57;1.92;;;1.60;;
8480;SDS011;4277;51.354;6.740;2022-08-24T14:06:32;2.10;;;1.90;;
8480;SDS011;4277;51.354;6.740;2022-08-24T14:11:35;3.53;;;1.90;;
8480;SDS011;4277;51.354;6.740;2022-08-24T14:14:05;2.40;;;1.50;;
8480;SDS011;4277;51.354;6.740;2022-08-24T14:24:46;4.82;;;2.03;;
8480;SDS011;4277;51.354;6.740;2022-08-24T14:27:37;3.17;;;1.95;;
8480;SDS011;4277;51.354;6.740;2022-08-24T14:35:18;3.40;;;1.90;;
8480;SDS011;4277;51.354;6.740;2022-08-24T14:45:33;2.70;;;1.90;;
8480;SDS011;4277;51.354;6.740;2022-08-24T14:48:23;4.93;;;1.83;;
8480;SDS011;4277;51.354;6.740;2022-08-24T15:08:06;2.83;;;1.60;;
8480;SDS011;4277;51.354;6.740;2022-08-24T15:15:54;2.38;;;1.70;;
8480;SDS011;4277;51.354;6.740;2022-08-24T15:18:32;2.45;;;1.70;;
8480;SDS011;4277;51.354;6.740;2022-08-24T15:24:17;3.45;;;1.70;;
8480;SDS011;4277;51.354;6.740;2022-08-24T15:29:52;2.42;;;1.70;;
8480;SDS011;4277;51.354;6.740;2022-08-24T15:32:22;3.72;;;1.85;;
8480;SDS011;4277;51.354;6.740;2022-08-24T15:35:04;2.88;;;1.55;;
8480;SDS011;4277;51.354;6.740;2022-08-24T15:37:34;2.75;;;1.40;;
8480;SDS011;4277;51.354;6.740;2022-08-24T15:40:03;3.15;;;1.73;;
8480;SDS011;4277;51.354;6.740;2022-08-24T15:42:41;3.47;;;1.65;;
8480;SDS011;4277;51.354;6.740;2022-08-24T15:45:07;2.65;;;1.80;;
8480;SDS011;4277;51.354;6.740;2022-08-24T15:47:35;3.40;;;1.70;;
8480;SDS011;4277;51.354;6.740;2022-08-24T15:50:06;2.63;;;1.90;;
8480;SDS011;4277;51.354;6.740;2022-08-24T16:00:51;2.45;;;2.03;;
8480;SDS011;4277;51.354;6.740;2022-08-24T16:11:37;3.00;;;1.90;;
8480;SDS011;4277;51.354;6.740;2022-08-24T16:14:22;3.72;;;1.92;;
8480;SDS011;4277;51.354;6.740;2022-08-24T16:16:52;2.00;;;1.80;;
8480;SDS011;4277;51.354;6.740;2022-08-24T16:19:19;2.05;;;1.85;;
8480;SDS011;4277;51.354;6.740;2022-08-24T16:21:52;2.17;;;1.90;;
8480;SDS011;4277;51.354;6.740;2022-08-24T16:27:09;2.95;;;1.70;;
8480;SDS011;4277;51.354;6.740;2022-08-24T16:34:40;5.93;;;1.80;;
8480;SDS011;4277;51.354;6.740;2022-08-24T16:37:06;4.38;;;1.70;;
8480;SDS011;4277;51.354;6.740;2022-08-24T16:39:32;3.45;;;2.05;;
8480;SDS011;4277;51.354;6.740;2022-08-24T16:41:59;3.20;;;1.65;;
8480;SDS011;4277;51.354;6.740;2022-08-24T16:44:27;3.25;;;1.80;;
8480;SDS011;4277;51.354;6.740;2022-08-24T16:46:57;4.20;;;2.00;;
8480;SDS011;4277;51.354;6.740;2022-08-24T16:49:23;4.15;;;2.00;;
8480;SDS011;4277;51.354;6.740;2022-08-24T16:51:49;5.07;;;1.90;;
8480;SDS011;4277;51.354;6.740;2022-08-24T16:54:15;4.32;;;2.10;;
8480;SDS011;4277;51.354;6.740;2022-08-24T16:56:41;4.45;;;2.00;;
8480;SDS011;4277;51.354;6.740;2022-08-24T16:59:09;4.47;;;2.10;;
8480;SDS011;4277;51.354;6.740;2022-08-24T17:01:38;3.97;;;2.10;;
8480;SDS011;4277;51.354;6.740;2022-08-24T17:04:04;4.15;;;1.98;;
8480;SDS011;4277;51.354;6.740;2022-08-24T17:06:30;8.40;;;2.25;;
8480;SDS011;4277;51.354;6.740;2022-08-24T17:08:56;6.25;;;2.00;;
8480;SDS011;4277;51.354;6.740;2022-08-24T17:11:22;2.83;;;1.98;;
8480;SDS011;4277;51.354;6.740;2022-08-24T17:13:49;3.85;;;2.15;;
8480;SDS011;4277;51.354;6.740;2022-08-24T17:16:15;8.43;;;2.25;;
8480;SDS011;4277;51.354;6.740;2022-08-24T17:18:41;5.28;;;2.13;;
8480;SDS011;4277;51.354;6.740;2022-08-24T17:21:07;2.47;;;1.90;;
8480;SDS011;4277;51.354;6.740;2022-08-24T17:23:33;6.20;;;2.13;;
8480;SDS011;4277;51.354;6.740;2022-08-24T17:25:59;4.15;;;2.00;;
8480;SDS011;4277;51.354;6.740;2022-08-24T17:28:27;7.00;;;2.20;;
8480;SDS011;4277;51.354;6.740;2022-08-24T17:30:53;2.95;;;2.10;;
8480;SDS011;4277;51.354;6.740;2022-08-24T17:33:18;2.65;;;2.25;;
8480;SDS011;4277;51.354;6.740;2022-08-24T17:35:44;3.47;;;2.30;;
8480;SDS011;4277;51.354;6.740;2022-08-24T17:38:09;3.47;;;2.20;;
8480;SDS011;4277;51.354;6.740;2022-08-24T17:40:35;4.75;;;2.30;;
8480;SDS011;4277;51.354;6.740;2022-08-24T17:43:01;6.05;;;2.60;;
8480;SDS011;4277;51.354;6.740;2022-08-24T17:45:26;3.50;;;2.38;;
8480;SDS011;4277;51.354;6.740;2022-08-24T17:47:52;7.78;;;2.33;;
8480;SDS011;4277;51.354;6.740;2022-08-24T17:50:19;6.10;;;2.13;;
8480;SDS011;4277;51.354;6.740;2022-08-24T17:52:46;5.20;;;2.20;;
8480;SDS011;4277;51.354;6.740;2022-08-24T17:55:12;7.13;;;2.65;;
8480;SDS011;4277;51.354;6.740;2022-08-24T17:57:39;6.13;;;2.53;;
8480;SDS011;4277;51.354;6.740;2022-08-24T18:00:06;8.20;;;2.60;;
8480;SDS011;4277;51.354;6.740;2022-08-24T18:02:34;6.13;;;2.78;;
8480;SDS011;4277;51.354;6.740;2022-08-24T18:05:00;5.80;;;2.30;;
8480;SDS011;4277;51.354;6.740;2022-08-24T18:07:26;6.15;;;2.58;;
8480;SDS011;4277;51.354;6.740;2022-08-24T18:09:55;4.07;;;2.53;;
8480;SDS011;4277;51.354;6.740;2022-08-24T18:12:24;4.88;;;2.60;;
8480;SDS011;4277;51.354;6.740;2022-08-24T18:14:50;6.85;;;3.00;;
8480;SDS011;4277;51.354;6.740;2022-08-24T18:17:20;6.93;;;2.90;;
8480;SDS011;4277;51.354;6.740;2022-08-24T18:19:47;4.13;;;2.88;;
8480;SDS011;4277;51.354;6.740;2022-08-24T18:22:16;4.93;;;2.78;;
8480;SDS011;4277;51.354;6.740;2022-08-24T18:24:42;5.40;;;3.05;;
8480;SDS011;4277;51.354;6.740;2022-08-24T18:27:13;6.25;;;2.85;;
8480;SDS011;4277;51.354;6.740;2022-08-24T18:29:42;5.03;;;2.78;;
8480;SDS011;4277;51.354;6.740;2022-08-24T18:32:09;4.82;;;2.55;;
8480;SDS011;4277;51.354;6.740;2022-08-24T18:34:36;7.22;;;2.97;;
8480;SDS011;4277;51.354;6.740;2022-08-24T18:37:02;4.70;;;2.78;;
8480;SDS011;4277;51.354;6.740;2022-08-24T18:39:28;4.03;;;2.70;;
8480;SDS011;4277;51.354;6.740;2022-08-24T18:41:54;3.50;;;2.70;;
8480;SDS011;4277;51.354;6.740;2022-08-24T18:44:23;5.43;;;2.80;;
8480;SDS011;4277;51.354;6.740;2022-08-24T18:46:49;5.70;;;2.90;;
8480;SDS011;4277;51.354;6.740;2022-08-24T18:49:16;5.80;;;3.05;;
8480;SDS011;4277;51.354;6.740;2022-08-24T18:51:43;7.43;;;3.03;;
8480;SDS011;4277;51.354;6.740;2022-08-24T18:54:14;5.70;;;2.90;;
8480;SDS011;4277;51.354;6.740;2022-08-24T18:56:45;6.63;;;3.22;;
8480;SDS011;4277;51.354;6.740;2022-08-24T18:59:12;6.15;;;3.10;;
8480;SDS011;4277;51.354;6.740;2022-08-24T19:01:39;4.70;;;3.10;;
8480;SDS011;4277;51.354;6.740;2022-08-24T19:04:24;4.68;;;2.80;;
8480;SDS011;4277;51.354;6.740;2022-08-24T19:06:50;4.05;;;2.90;;
8480;SDS011;4277;51.354;6.740;2022-08-24T19:09:16;3.55;;;2.80;;
8480;SDS011;4277;51.354;6.740;2022-08-24T19:11:41;3.35;;;2.95;;
8480;SDS011;4277;51.354;6.740;2022-08-24T19:14:07;5.07;;;2.70;;
8480;SDS011;4277;51.354;6.740;2022-08-24T19:16:33;5.78;;;2.90;;
8480;SDS011;4277;51.354;6.740;2022-08-24T19:18:59;8.52;;;3.20;;
8480;SDS011;4277;51.354;6.740;2022-08-24T19:21:25;6.55;;;2.90;;
8480;SDS011;4277;51.354;6.740;2022-08-24T19:23:53;4.28;;;3.08;;
8480;SDS011;4277;51.354;6.740;2022-08-24T19:26:20;7.25;;;3.15;;
8480;SDS011;4277;51.354;6.740;2022-08-24T19:28:47;5.95;;;3.10;;
8480;SDS011;4277;51.354;6.740;2022-08-24T19:31:13;3.80;;;2.60;;